Wetterdaten: Woche 25.07.16 - 31.07.16 (KW30)
Datum Zeit Temp. A. Temp. A. max Feuchte A. Luftdruck Regen Wind Richtung Sonnenschein ET UV Solar Taupunkt Windben
25.07.2016 00:00 16,9 C 16,9 C 95 % 1017,7 hPa 3,6 mm 1,1 km/h (1 Bft) S 0,00 h 0,000 mm 0,0 UV-I 0 W/m 16,2 C 2,1 km/h (1 Bft)
25.07.2016 01:00 16,8 C 16,8 C 96 % 1017,6 hPa 6,6 mm 1,8 km/h (1 Bft) S 0,00 h 0,000 mm 0,0 UV-I 0 W/m 16,1 C 3,4 km/h (1 Bft)
25.07.2016 02:00 16,7 C 16,7 C 96 % 1017,3 hPa 2,2 mm 0,9 km/h (0 Bft) S 0,00 h 0,000 mm 0,0 UV-I 0 W/m 16,0 C 2,1 km/h (1 Bft)
25.07.2016 03:00 16,4 C 16,4 C 96 % 1017,0 hPa 0,0 mm 0,4 km/h (0 Bft) SW 0,00 h 0,000 mm 0,0 UV-I 0 W/m 15,8 C 1,2 km/h (1 Bft)
25.07.2016 04:00 16,3 C 16,3 C 97 % 1016,9 hPa 0,0 mm 0,4 km/h (0 Bft) S-SW 0,00 h 0,000 mm 0,0 UV-I 0 W/m 15,8 C 0,8 km/h (0 Bft)
25.07.2016 05:00 16,2 C 16,2 C 97 % 1016,9 hPa 0,0 mm 0,2 km/h (0 Bft) W-SW 0,00 h 0,000 mm 0,0 UV-I 0 W/m 15,7 C 0,6 km/h (0 Bft)
25.07.2016 06:00 16,3 C 16,3 C 97 % 1017,0 hPa 0,0 mm 1,2 km/h (1 Bft) S 0,00 h 0,000 mm 0,0 UV-I 8 W/m 15,7 C 2,3 km/h (1 Bft)
25.07.2016 07:00 16,3 C 16,4 C 96 % 1017,2 hPa 0,8 mm 0,5 km/h (0 Bft) S-SW 0,00 h 0,000 mm 0,0 UV-I 17 W/m 15,8 C 1,2 km/h (1 Bft)
25.07.2016 08:00 16,6 C 16,6 C 96 % 1017,5 hPa 1,2 mm 0,7 km/h (0 Bft) S 0,00 h 0,000 mm 0,0 UV-I 25 W/m 16,0 C 1,7 km/h (1 Bft)
25.07.2016 09:00 16,4 C 16,5 C 96 % 1017,8 hPa 6,0 mm 0,7 km/h (0 Bft) S 0,00 h 0,025 mm 0,0 UV-I 34 W/m 15,9 C 1,5 km/h (1 Bft)
25.07.2016 10:00 17,0 C 17,0 C 96 % 1017,7 hPa 2,2 mm 0,5 km/h (0 Bft) SW 0,00 h 0,026 mm 1,4 UV-I 147 W/m 16,4 C 1,1 km/h (1 Bft)
25.07.2016 11:00 18,6 C 18,6 C 91 % 1017,6 hPa 0,6 mm 1,9 km/h (1 Bft) NW 0,52 h 0,076 mm 3,9 UV-I 476 W/m 17,1 C 3,0 km/h (1 Bft)
25.07.2016 12:00 18,5 C 18,6 C 91 % 1017,6 hPa 0,2 mm 2,9 km/h (1 Bft) NW 0,07 h 0,254 mm 2,8 UV-I 286 W/m 17,0 C 4,6 km/h (1 Bft)
25.07.2016 13:00 20,6 C 20,6 C 83 % 1017,1 hPa 0,0 mm 3,1 km/h (1 Bft) W-NW 1,00 h 0,152 mm 7,2 UV-I 874 W/m 17,6 C 4,9 km/h (1 Bft)
25.07.2016 14:00 21,6 C 21,6 C 79 % 1016,7 hPa 0,0 mm 2,6 km/h (1 Bft) NW 0,62 h 0,508 mm 5,9 UV-I 676 W/m 17,7 C 4,4 km/h (1 Bft)
25.07.2016 15:00 21,8 C 21,9 C 78 % 1016,5 hPa 0,0 mm 2,9 km/h (1 Bft) W 0,25 h 0,381 mm 3,9 UV-I 366 W/m 17,7 C 4,8 km/h (1 Bft)
25.07.2016 16:00 22,7 C 22,7 C 73 % 1016,5 hPa 0,0 mm 5,1 km/h (1 Bft) W-NW 0,27 h 0,229 mm 3,2 UV-I 292 W/m 17,5 C 8,1 km/h (2 Bft)
25.07.2016 17:00 22,6 C 22,7 C 71 % 1016,4 hPa 0,0 mm 4,0 km/h (1 Bft) W 0,00 h 0,178 mm 1,8 UV-I 97 W/m 17,0 C 6,4 km/h (2 Bft)
25.07.2016 18:00 21,9 C 21,9 C 75 % 1016,8 hPa 0,0 mm 3,6 km/h (1 Bft) W-NW 0,00 h 0,076 mm 0,9 UV-I 81 W/m 17,1 C 5,9 km/h (2 Bft)
25.07.2016 19:00 19,7 C 19,7 C 85 % 1017,2 hPa 0,0 mm 0,9 km/h (0 Bft) S 0,00 h 0,076 mm 0,6 UV-I 36 W/m 17,1 C 1,8 km/h (1 Bft)
25.07.2016 20:00 18,9 C 18,9 C 88 % 1017,6 hPa 0,0 mm 1,2 km/h (1 Bft) S 0,00 h 0,026 mm 0,0 UV-I 27 W/m 16,8 C 2,5 km/h (1 Bft)
25.07.2016 21:00 18,5 C 18,5 C 87 % 1018,3 hPa 0,0 mm 1,9 km/h (1 Bft) S 0,00 h 0,025 mm 0,0 UV-I 0 W/m 16,3 C 3,4 km/h (1 Bft)
25.07.2016 22:00 18,0 C 18,0 C 89 % 1018,4 hPa 0,0 mm 2,1 km/h (1 Bft) S 0,00 h 0,000 mm 0,0 UV-I 0 W/m 16,1 C 3,5 km/h (1 Bft)
25.07.2016 23:00 17,4 C 17,4 C 92 % 1018,2 hPa 0,0 mm 0,0 km/h (0 Bft) N 0,00 h 0,000 mm 0,0 UV-I 0 W/m 16,1 C 0,0 km/h (0 Bft)
26.07.2016 00:00 17,3 C 17,4 C 91 % 1017,8 hPa 0,0 mm 0,6 km/h (0 Bft) S 0,00 h 0,000 mm 0,0 UV-I 0 W/m 15,9 C 1,0 km/h (0 Bft)
26.07.2016 01:00 16,9 C 16,9 C 91 % 1017,9 hPa 0,0 mm 2,2 km/h (1 Bft) S-SW 0,00 h 0,000 mm 0,0 UV-I 0 W/m 15,5 C 4,0 km/h (1 Bft)
26.07.2016 02:00 16,6 C 16,7 C 93 % 1018,0 hPa 0,0 mm 1,2 km/h (1 Bft) W 0,00 h 0,000 mm 0,0 UV-I 0 W/m 15,5 C 2,5 km/h (1 Bft)
26.07.2016 03:00 16,3 C 16,3 C 94 % 1018,0 hPa 0,0 mm 0,8 km/h (0 Bft) S-SW 0,00 h 0,000 mm 0,0 UV-I 0 W/m 15,3 C 1,9 km/h (1 Bft)
26.07.2016 04:00 16,4 C 16,4 C 94 % 1017,7 hPa 0,0 mm 0,3 km/h (0 Bft) S-SW 0,00 h 0,000 mm 0,0 UV-I 0 W/m 15,4 C 0,9 km/h (0 Bft)
26.07.2016 05:00 16,1 C 16,1 C 94 % 1017,7 hPa 0,0 mm 0,1 km/h (0 Bft) S-SW 0,00 h 0,000 mm 0,0 UV-I 5 W/m 15,1 C 0,3 km/h (0 Bft)
26.07.2016 06:00 16,2 C 16,2 C 94 % 1017,8 hPa 0,0 mm 0,3 km/h (0 Bft) S-SW 0,00 h 0,000 mm 0,0 UV-I 20 W/m 15,2 C 0,7 km/h (0 Bft)
26.07.2016 07:00 16,8 C 16,8 C 93 % 1018,0 hPa 0,0 mm 0,3 km/h (0 Bft) S-SW 0,00 h 0,000 mm 0,6 UV-I 72 W/m 15,7 C 0,7 km/h (0 Bft)
26.07.2016 08:00 18,4 C 18,4 C 88 % 1018,1 hPa 0,0 mm 0,9 km/h (0 Bft) S 0,00 h 0,051 mm 1,2 UV-I 174 W/m 16,3 C 1,9 km/h (1 Bft)
26.07.2016 09:00 19,8 C 19,8 C 83 % 1017,9 hPa 0,0 mm 1,7 km/h (1 Bft) NW 0,05 h 0,101 mm 2,3 UV-I 285 W/m 16,7 C 2,9 km/h (1 Bft)
26.07.2016 10:00 21,3 C 21,3 C 79 % 1017,8 hPa 0,0 mm 4,0 km/h (1 Bft) W-NW 0,87 h 0,178 mm 4,4 UV-I 642 W/m 17,4 C 6,4 km/h (2 Bft)
26.07.2016 11:00 22,1 C 22,1 C 74 % 1017,6 hPa 0,0 mm 5,4 km/h (1 Bft) N-NW 0,92 h 0,381 mm 5,9 UV-I 765 W/m 17,3 C 8,4 km/h (2 Bft)
26.07.2016 12:00 22,6 C 22,6 C 73 % 1017,3 hPa 0,0 mm 4,3 km/h (1 Bft) W-NW 0,78 h 0,483 mm 5,8 UV-I 746 W/m 17,5 C 6,9 km/h (2 Bft)
26.07.2016 13:00 22,6 C 22,7 C 71 % 1016,9 hPa 0,0 mm 2,1 km/h (1 Bft) NW 0,32 h 0,457 mm 4,1 UV-I 423 W/m 17,1 C 3,6 km/h (1 Bft)
26.07.2016 14:00 23,4 C 23,4 C 71 % 1016,4 hPa 0,0 mm 3,8 km/h (1 Bft) W-SW 0,62 h 0,254 mm 5,3 UV-I 669 W/m 17,7 C 6,6 km/h (2 Bft)
26.07.2016 15:00 22,5 C 22,5 C 75 % 1016,1 hPa 0,0 mm 4,3 km/h (1 Bft) O-NO 0,12 h 0,432 mm 2,4 UV-I 280 W/m 17,7 C 7,2 km/h (2 Bft)
26.07.2016 16:00 19,4 C 19,5 C 86 % 1016,1 hPa 18,8 mm 6,6 km/h (2 Bft) O 0,00 h 0,178 mm 0,8 UV-I 67 W/m 16,9 C 10,4 km/h (2 Bft)
26.07.2016 17:00 15,8 C 15,8 C 93 % 1017,8 hPa 29,8 mm 5,3 km/h (1 Bft) S-SO 0,00 h 0,050 mm 0,0 UV-I 5 W/m 14,7 C 9,0 km/h (2 Bft)
26.07.2016 18:00 15,5 C 15,5 C 95 % 1017,5 hPa 0,4 mm 2,3 km/h (1 Bft) W 0,00 h 0,000 mm 0,0 UV-I 10 W/m 14,6 C 4,2 km/h (1 Bft)
26.07.2016 19:00 15,4 C 15,4 C 95 % 1017,6 hPa 0,4 mm 1,4 km/h (1 Bft) W 0,00 h 0,000 mm 0,0 UV-I 21 W/m 14,6 C 2,9 km/h (1 Bft)
26.07.2016 20:00 15,3 C 15,3 C 95 % 1017,5 hPa 0,0 mm 1,9 km/h (1 Bft) NW 0,00 h 0,026 mm 0,0 UV-I 17 W/m 14,5 C 3,4 km/h (1 Bft)
26.07.2016 21:00 14,7 C 14,8 C 96 % 1017,9 hPa 0,0 mm 1,1 km/h (1 Bft) W 0,00 h 0,000 mm 0,0 UV-I 0 W/m 14,1 C 2,4 km/h (1 Bft)
26.07.2016 22:00 14,3 C 14,3 C 96 % 1017,7 hPa 0,0 mm 1,3 km/h (1 Bft) W-SW 0,00 h 0,000 mm 0,0 UV-I 0 W/m 13,7 C 2,8 km/h (1 Bft)
26.07.2016 23:00 13,9 C 13,9 C 96 % 1017,4 hPa 0,0 mm 0,4 km/h (0 Bft) NO 0,00 h 0,000 mm 0,0 UV-I 0 W/m 13,2 C 1,3 km/h (1 Bft)
27.07.2016 00:00 13,4 C 13,5 C 96 % 1017,4 hPa 0,0 mm 0,4 km/h (0 Bft) NO 0,00 h 0,000 mm 0,0 UV-I 0 W/m 12,8 C 1,1 km/h (1 Bft)
27.07.2016 01:00 12,8 C 12,8 C 97 % 1017,4 hPa 0,2 mm 0,2 km/h (0 Bft) N 0,00 h 0,000 mm 0,0 UV-I 0 W/m 12,3 C 0,6 km/h (0 Bft)
27.07.2016 02:00 12,7 C 12,7 C 97 % 1017,5 hPa 0,0 mm 0,3 km/h (0 Bft) W-SW 0,00 h 0,000 mm 0,0 UV-I 0 W/m 12,2 C 0,9 km/h (0 Bft)
27.07.2016 03:00 12,7 C 12,7 C 97 % 1017,1 hPa 0,0 mm 0,2 km/h (0 Bft) W 0,00 h 0,000 mm 0,0 UV-I 0 W/m 12,3 C 0,9 km/h (0 Bft)
27.07.2016 04:00 12,6 C 12,6 C 97 % 1016,9 hPa 0,0 mm 0,7 km/h (0 Bft) N-NW 0,00 h 0,000 mm 0,0 UV-I 0 W/m 12,1 C 1,5 km/h (1 Bft)
27.07.2016 05:00 13,4 C 13,4 C 96 % 1016,8 hPa 0,0 mm 0,5 km/h (0 Bft) SO 0,00 h 0,000 mm 0,0 UV-I 6 W/m 12,8 C 1,2 km/h (1 Bft)
27.07.2016 06:00 13,7 C 13,7 C 96 % 1016,6 hPa 0,0 mm 0,3 km/h (0 Bft) W 0,00 h 0,000 mm 0,0 UV-I 29 W/m 13,1 C 0,7 km/h (0 Bft)
27.07.2016 07:00 14,5 C 14,5 C 96 % 1016,9 hPa 0,0 mm 0,0 km/h (0 Bft) N 0,00 h 0,025 mm 0,6 UV-I 70 W/m 13,8 C 0,0 km/h (0 Bft)
27.07.2016 08:00 16,1 C 16,1 C 94 % 1017,0 hPa 0,0 mm 0,6 km/h (0 Bft) S-SW 0,00 h 0,026 mm 0,9 UV-I 139 W/m 15,0 C 1,5 km/h (1 Bft)
27.07.2016 09:00 17,3 C 17,3 C 92 % 1016,9 hPa 0,0 mm 0,3 km/h (0 Bft) SO 0,03 h 0,076 mm 1,5 UV-I 201 W/m 16,0 C 0,7 km/h (0 Bft)
27.07.2016 10:00 19,6 C 19,6 C 84 % 1016,8 hPa 0,0 mm 3,2 km/h (1 Bft) W-NW 0,55 h 0,102 mm 3,7 UV-I 519 W/m 16,8 C 5,3 km/h (1 Bft)
27.07.2016 11:00 20,7 C 20,7 C 78 % 1016,8 hPa 0,0 mm 7,2 km/h (2 Bft) W-NW 0,37 h 0,304 mm 4,1 UV-I 433 W/m 16,8 C 11,6 km/h (2 Bft)
27.07.2016 12:00 21,6 C 21,7 C 76 % 1016,4 hPa 0,0 mm 5,9 km/h (2 Bft) W-NW 0,63 h 0,280 mm 5,8 UV-I 703 W/m 17,1 C 9,4 km/h (2 Bft)
27.07.2016 13:00 21,6 C 21,6 C 74 % 1015,8 hPa 0,0 mm 2,7 km/h (1 Bft) W-SW 0,33 h 0,432 mm 4,5 UV-I 464 W/m 16,8 C 4,4 km/h (1 Bft)
27.07.2016 14:00 22,2 C 22,3 C 72 % 1015,3 hPa 0,0 mm 5,0 km/h (1 Bft) W-NW 0,37 h 0,279 mm 3,6 UV-I 400 W/m 17,0 C 8,0 km/h (2 Bft)
27.07.2016 15:00 21,2 C 21,2 C 79 % 1015,1 hPa 0,0 mm 5,4 km/h (1 Bft) W-SW 0,08 h 0,279 mm 2,2 UV-I 253 W/m 17,3 C 8,6 km/h (2 Bft)
27.07.2016 16:00 20,4 C 20,4 C 82 % 1015,1 hPa 0,0 mm 4,1 km/h (1 Bft) W-SW 0,00 h 0,178 mm 1,5 UV-I 152 W/m 17,2 C 7,0 km/h (2 Bft)
27.07.2016 17:00 17,2 C 17,3 C 87 % 1015,6 hPa 1,0 mm 3,8 km/h (1 Bft) S 0,00 h 0,102 mm 0,5 UV-I 47 W/m 15,0 C 6,6 km/h (2 Bft)
27.07.2016 18:00 19,3 C 19,4 C 84 % 1015,6 hPa 0,0 mm 4,1 km/h (1 Bft) S-SW 0,02 h 0,025 mm 1,1 UV-I 129 W/m 16,6 C 7,7 km/h (2 Bft)
27.07.2016 19:00 19,1 C 19,2 C 83 % 1015,8 hPa 0,0 mm 2,5 km/h (1 Bft) SW 0,42 h 0,076 mm 0,6 UV-I 102 W/m 16,2 C 4,7 km/h (1 Bft)
27.07.2016 20:00 17,9 C 17,9 C 86 % 1016,1 hPa 0,0 mm 1,3 km/h (1 Bft) S-SO 0,55 h 0,077 mm 0,0 UV-I 36 W/m 15,5 C 2,7 km/h (1 Bft)
27.07.2016 21:00 16,1 C 16,1 C 91 % 1016,7 hPa 0,0 mm 1,9 km/h (1 Bft) S 0,00 h 0,025 mm 0,0 UV-I 0 W/m 14,6 C 3,3 km/h (1 Bft)
27.07.2016 22:00 16,2 C 16,2 C 92 % 1017,0 hPa 0,0 mm 0,6 km/h (0 Bft) S-SW 0,00 h 0,000 mm 0,0 UV-I 0 W/m 14,8 C 1,6 km/h (1 Bft)
27.07.2016 23:00 15,5 C 15,6 C 90 % 1018,0 hPa 1,4 mm 5,3 km/h (1 Bft) W-NW 0,00 h 0,000 mm 0,0 UV-I 0 W/m 13,9 C 8,7 km/h (2 Bft)
28.07.2016 00:00 14,3 C 14,3 C 93 % 1018,0 hPa 0,2 mm 1,8 km/h (1 Bft) S-SO 0,00 h 0,000 mm 0,0 UV-I 0 W/m 13,2 C 3,0 km/h (1 Bft)
28.07.2016 01:00 13,7 C 13,7 C 95 % 1017,7 hPa 0,2 mm 0,3 km/h (0 Bft) W-SW 0,00 h 0,000 mm 0,0 UV-I 0 W/m 12,9 C 0,7 km/h (0 Bft)
28.07.2016 02:00 13,7 C 13,7 C 96 % 1017,4 hPa 0,0 mm 0,3 km/h (0 Bft) W 0,00 h 0,000 mm 0,0 UV-I 0 W/m 13,1 C 1,1 km/h (1 Bft)
28.07.2016 03:00 13,9 C 13,9 C 96 % 1017,0 hPa 0,0 mm 1,3 km/h (1 Bft) S-SW 0,00 h 0,000 mm 0,0 UV-I 0 W/m 13,2 C 2,5 km/h (1 Bft)
28.07.2016 04:00 13,9 C 13,9 C 95 % 1016,9 hPa 0,0 mm 0,8 km/h (0 Bft) N-NW 0,00 h 0,000 mm 0,0 UV-I 0 W/m 13,1 C 1,7 km/h (1 Bft)
28.07.2016 05:00 13,7 C 13,8 C 96 % 1017,0 hPa 0,0 mm 0,5 km/h (0 Bft) S-SW 0,00 h 0,000 mm 0,0 UV-I 0 W/m 13,1 C 1,5 km/h (1 Bft)
28.07.2016 06:00 14,0 C 14,0 C 95 % 1016,7 hPa 0,0 mm 0,3 km/h (0 Bft) W-SW 0,00 h 0,000 mm 0,0 UV-I 18 W/m 13,1 C 1,6 km/h (1 Bft)
28.07.2016 07:00 14,1 C 14,1 C 95 % 1016,6 hPa 0,0 mm 0,4 km/h (0 Bft) S-SW 0,15 h 0,000 mm 0,9 UV-I 77 W/m 13,3 C 1,3 km/h (1 Bft)
28.07.2016 08:00 16,3 C 16,3 C 89 % 1016,7 hPa 0,0 mm 1,0 km/h (0 Bft) S-SW 0,88 h 0,025 mm 1,8 UV-I 313 W/m 14,4 C 2,1 km/h (1 Bft)
28.07.2016 09:00 18,9 C 18,9 C 76 % 1016,8 hPa 0,0 mm 3,2 km/h (1 Bft) W-NW 1,00 h 0,178 mm 3,4 UV-I 583 W/m 14,6 C 4,9 km/h (1 Bft)
28.07.2016 10:00 19,5 C 19,6 C 72 % 1016,6 hPa 0,0 mm 2,9 km/h (1 Bft) W-NW 0,65 h 0,330 mm 4,1 UV-I 554 W/m 14,3 C 4,8 km/h (1 Bft)
28.07.2016 11:00 19,6 C 19,7 C 76 % 1016,7 hPa 0,0 mm 4,1 km/h (1 Bft) W-NW 0,40 h 0,331 mm 4,0 UV-I 391 W/m 15,3 C 6,3 km/h (2 Bft)
28.07.2016 12:00 19,8 C 19,8 C 75 % 1016,5 hPa 0,0 mm 1,9 km/h (1 Bft) O 0,15 h 0,254 mm 3,8 UV-I 407 W/m 15,1 C 3,3 km/h (1 Bft)
28.07.2016 13:00 20,2 C 20,2 C 73 % 1016,2 hPa 0,0 mm 1,7 km/h (1 Bft) O-NO 0,13 h 0,228 mm 2,8 UV-I 299 W/m 15,1 C 3,0 km/h (1 Bft)
28.07.2016 14:00 19,7 C 19,8 C 81 % 1015,9 hPa 0,2 mm 2,7 km/h (1 Bft) O-NO 0,28 h 0,178 mm 3,6 UV-I 422 W/m 16,2 C 4,7 km/h (1 Bft)
28.07.2016 15:00 20,4 C 20,4 C 77 % 1015,5 hPa 0,0 mm 6,2 km/h (2 Bft) O-NO 0,27 h 0,254 mm 3,5 UV-I 404 W/m 16,3 C 10,6 km/h (2 Bft)
28.07.2016 16:00 19,5 C 19,6 C 75 % 1015,4 hPa 0,0 mm 3,9 km/h (1 Bft) N-NO 0,00 h 0,279 mm 1,8 UV-I 150 W/m 15,1 C 6,3 km/h (2 Bft)
28.07.2016 17:00 20,3 C 20,3 C 74 % 1015,1 hPa 0,0 mm 3,9 km/h (1 Bft) O-NO 0,00 h 0,102 mm 1,8 UV-I 129 W/m 15,6 C 5,8 km/h (2 Bft)
28.07.2016 18:00 19,9 C 20,0 C 78 % 1014,9 hPa 0,0 mm 2,2 km/h (1 Bft) O 0,00 h 0,102 mm 1,0 UV-I 94 W/m 15,9 C 3,7 km/h (1 Bft)
28.07.2016 19:00 19,1 C 19,1 C 83 % 1014,9 hPa 0,0 mm 0,6 km/h (0 Bft) O 0,12 h 0,050 mm 0,6 UV-I 73 W/m 16,0 C 1,4 km/h (1 Bft)
28.07.2016 20:00 17,8 C 17,8 C 86 % 1015,2 hPa 0,0 mm 1,0 km/h (0 Bft) S 0,00 h 0,051 mm 0,0 UV-I 17 W/m 15,5 C 1,7 km/h (1 Bft)
28.07.2016 21:00 16,2 C 16,2 C 90 % 1015,5 hPa 0,0 mm 3,0 km/h (1 Bft) S-SO 0,00 h 0,000 mm 0,0 UV-I 0 W/m 14,6 C 4,7 km/h (1 Bft)
28.07.2016 22:00 15,1 C 15,2 C 91 % 1015,5 hPa 0,0 mm 0,4 km/h (0 Bft) S 0,00 h 0,000 mm 0,0 UV-I 0 W/m 13,7 C 0,7 km/h (0 Bft)
28.07.2016 23:00 14,4 C 14,5 C 93 % 1015,6 hPa 0,0 mm 0,3 km/h (0 Bft) W 0,00 h 0,000 mm 0,0 UV-I 0 W/m 13,3 C 1,0 km/h (0 Bft)
29.07.2016 00:00 14,5 C 14,5 C 92 % 1015,7 hPa 0,0 mm 1,0 km/h (0 Bft) S-SW 0,00 h 0,000 mm 0,0 UV-I 0 W/m 13,2 C 2,1 km/h (1 Bft)
29.07.2016 01:00 15,0 C 15,0 C 90 % 1015,6 hPa 0,0 mm 0,8 km/h (0 Bft) S 0,00 h 0,000 mm 0,0 UV-I 0 W/m 13,4 C 1,7 km/h (1 Bft)
29.07.2016 02:00 14,4 C 14,5 C 93 % 1015,5 hPa 0,0 mm 0,0 km/h (0 Bft) N 0,00 h 0,000 mm 0,0 UV-I 0 W/m 13,2 C 0,1 km/h (0 Bft)
29.07.2016 03:00 15,2 C 15,2 C 90 % 1015,5 hPa 0,0 mm 1,1 km/h (1 Bft) S 0,00 h 0,000 mm 0,0 UV-I 0 W/m 13,6 C 2,6 km/h (1 Bft)
29.07.2016 04:00 15,5 C 15,5 C 88 % 1015,4 hPa 0,0 mm 1,6 km/h (1 Bft) S 0,00 h 0,000 mm 0,0 UV-I 0 W/m 13,4 C 3,3 km/h (1 Bft)
29.07.2016 05:00 15,7 C 15,7 C 87 % 1015,6 hPa 0,0 mm 2,9 km/h (1 Bft) S 0,00 h 0,000 mm 0,0 UV-I 0 W/m 13,6 C 5,3 km/h (1 Bft)
29.07.2016 06:00 15,0 C 15,0 C 93 % 1015,6 hPa 0,0 mm 0,7 km/h (0 Bft) W-SW 0,00 h 0,000 mm 0,0 UV-I 13 W/m 13,8 C 1,3 km/h (1 Bft)
29.07.2016 07:00 15,4 C 15,4 C 93 % 1015,7 hPa 0,0 mm 0,0 km/h (0 Bft) N 0,00 h 0,000 mm 0,5 UV-I 71 W/m 14,3 C 0,0 km/h (0 Bft)
29.07.2016 08:00 16,5 C 16,5 C 90 % 1015,8 hPa 0,0 mm 0,1 km/h (0 Bft) W-NW 0,00 h 0,025 mm 0,8 UV-I 92 W/m 14,9 C 0,1 km/h (0 Bft)
29.07.2016 09:00 17,6 C 17,6 C 85 % 1015,9 hPa 0,0 mm 3,3 km/h (1 Bft) W 0,05 h 0,051 mm 1,5 UV-I 185 W/m 15,0 C 5,3 km/h (1 Bft)
29.07.2016 10:00 18,8 C 18,9 C 79 % 1015,8 hPa 0,0 mm 7,9 km/h (2 Bft) W 0,25 h 0,102 mm 2,8 UV-I 346 W/m 15,2 C 13,0 km/h (3 Bft)
29.07.2016 11:00 20,5 C 20,5 C 75 % 1015,4 hPa 0,0 mm 7,7 km/h (2 Bft) W-NW 0,82 h 0,228 mm 5,8 UV-I 771 W/m 15,9 C 12,5 km/h (3 Bft)
29.07.2016 12:00 21,2 C 21,3 C 72 % 1015,0 hPa 0,0 mm 7,7 km/h (2 Bft) W-NW 0,60 h 0,458 mm 6,0 UV-I 701 W/m 15,9 C 12,3 km/h (3 Bft)
29.07.2016 13:00 21,6 C 21,6 C 71 % 1014,6 hPa 0,0 mm 6,2 km/h (2 Bft) W-NW 0,37 h 0,431 mm 5,0 UV-I 531 W/m 16,2 C 10,5 km/h (2 Bft)
29.07.2016 14:00 22,6 C 22,6 C 66 % 1014,3 hPa 0,0 mm 6,3 km/h (2 Bft) W 0,52 h 0,356 mm 5,6 UV-I 602 W/m 15,8 C 10,1 km/h (2 Bft)
29.07.2016 15:00 22,8 C 22,8 C 63 % 1014,0 hPa 0,0 mm 5,8 km/h (2 Bft) W 0,62 h 0,406 mm 4,5 UV-I 566 W/m 15,4 C 9,2 km/h (2 Bft)
29.07.2016 16:00 23,0 C 23,0 C 61 % 1013,6 hPa 0,0 mm 5,3 km/h (1 Bft) W-SW 0,13 h 0,381 mm 2,7 UV-I 230 W/m 15,2 C 8,4 km/h (2 Bft)
29.07.2016 17:00 22,9 C 22,9 C 62 % 1013,4 hPa 0,0 mm 4,4 km/h (1 Bft) W 0,00 h 0,178 mm 1,7 UV-I 104 W/m 15,3 C 7,3 km/h (2 Bft)
29.07.2016 18:00 22,2 C 22,2 C 64 % 1013,2 hPa 0,0 mm 5,8 km/h (1 Bft) W 0,00 h 0,102 mm 1,1 UV-I 65 W/m 15,1 C 9,4 km/h (2 Bft)
29.07.2016 19:00 21,2 C 21,3 C 67 % 1013,3 hPa 0,0 mm 3,7 km/h (1 Bft) W-SW 0,00 h 0,076 mm 0,6 UV-I 47 W/m 14,8 C 6,4 km/h (2 Bft)
29.07.2016 20:00 19,0 C 19,0 C 79 % 1013,4 hPa 0,0 mm 1,4 km/h (1 Bft) S 0,05 h 0,051 mm 0,0 UV-I 18 W/m 15,3 C 2,6 km/h (1 Bft)
29.07.2016 21:00 17,2 C 17,3 C 85 % 1013,9 hPa 0,0 mm 0,7 km/h (0 Bft) S 0,00 h 0,025 mm 0,0 UV-I 0 W/m 14,7 C 1,5 km/h (1 Bft)
29.07.2016 22:00 16,8 C 16,8 C 86 % 1014,2 hPa 0,0 mm 1,6 km/h (1 Bft) S-SO 0,00 h 0,000 mm 0,0 UV-I 0 W/m 14,3 C 2,8 km/h (1 Bft)
29.07.2016 23:00 16,1 C 16,1 C 88 % 1014,3 hPa 0,0 mm 0,3 km/h (0 Bft) S-SO 0,00 h 0,026 mm 0,0 UV-I 0 W/m 14,1 C 1,2 km/h (1 Bft)
30.07.2016 00:00 16,1 C 16,1 C 89 % 1014,4 hPa 0,0 mm 0,3 km/h (0 Bft) S 0,00 h 0,000 mm 0,0 UV-I 0 W/m 14,3 C 1,1 km/h (0 Bft)
30.07.2016 01:00 15,9 C 16,0 C 89 % 1014,4 hPa 0,0 mm 0,2 km/h (0 Bft) NO 0,00 h 0,000 mm 0,0 UV-I 0 W/m 14,2 C 1,0 km/h (0 Bft)
30.07.2016 02:00 15,8 C 15,8 C 90 % 1014,2 hPa 0,0 mm 0,4 km/h (0 Bft) W-NW 0,00 h 0,000 mm 0,0 UV-I 0 W/m 14,0 C 1,6 km/h (1 Bft)
30.07.2016 03:00 15,9 C 15,9 C 89 % 1014,2 hPa 0,0 mm 0,7 km/h (0 Bft) SO 0,00 h 0,000 mm 0,0 UV-I 0 W/m 14,1 C 2,0 km/h (1 Bft)
30.07.2016 04:00 14,9 C 14,9 C 91 % 1014,1 hPa 0,0 mm 0,2 km/h (0 Bft) S 0,00 h 0,000 mm 0,0 UV-I 0 W/m 13,5 C 0,5 km/h (0 Bft)
30.07.2016 05:00 14,0 C 14,0 C 94 % 1014,1 hPa 0,0 mm 0,0 km/h (0 Bft) N 0,00 h 0,000 mm 0,0 UV-I 5 W/m 13,1 C 0,0 km/h (0 Bft)
30.07.2016 06:00 14,2 C 14,2 C 95 % 1014,1 hPa 0,0 mm 0,2 km/h (0 Bft) NW 0,28 h 0,000 mm 0,0 UV-I 40 W/m 13,3 C 0,5 km/h (0 Bft)
30.07.2016 07:00 16,6 C 16,6 C 90 % 1014,2 hPa 0,0 mm 0,3 km/h (0 Bft) NW 0,88 h 0,025 mm 0,8 UV-I 180 W/m 14,9 C 1,2 km/h (1 Bft)
30.07.2016 08:00 19,3 C 19,3 C 83 % 1014,2 hPa 0,0 mm 0,0 km/h (0 Bft) N 1,00 h 0,102 mm 2,0 UV-I 366 W/m 16,4 C 0,0 km/h (0 Bft)
30.07.2016 09:00 21,2 C 21,3 C 75 % 1013,9 hPa 0,0 mm 1,9 km/h (1 Bft) N 1,00 h 0,203 mm 3,4 UV-I 535 W/m 16,7 C 3,4 km/h (1 Bft)
30.07.2016 10:00 22,8 C 22,9 C 69 % 1013,5 hPa 0,0 mm 2,3 km/h (1 Bft) N-NO 1,00 h 0,330 mm 4,9 UV-I 678 W/m 16,9 C 4,0 km/h (1 Bft)
30.07.2016 11:00 24,5 C 24,5 C 63 % 1013,0 hPa 0,0 mm 4,0 km/h (1 Bft) NW 1,00 h 0,432 mm 6,1 UV-I 791 W/m 16,9 C 6,4 km/h (2 Bft)
30.07.2016 12:00 25,3 C 25,3 C 60 % 1012,7 hPa 0,0 mm 5,7 km/h (1 Bft) W-NW 0,87 h 0,508 mm 6,5 UV-I 785 W/m 16,9 C 9,7 km/h (2 Bft)
30.07.2016 13:00 26,1 C 26,1 C 54 % 1012,4 hPa 0,0 mm 7,8 km/h (2 Bft) W-NW 0,88 h 0,508 mm 6,7 UV-I 861 W/m 16,1 C 12,5 km/h (3 Bft)
30.07.2016 14:00 26,4 C 26,5 C 51 % 1012,1 hPa 0,0 mm 8,5 km/h (2 Bft) W-NW 0,85 h 0,534 mm 6,2 UV-I 776 W/m 15,4 C 13,3 km/h (3 Bft)
30.07.2016 15:00 26,7 C 26,7 C 50 % 1011,9 hPa 0,0 mm 8,2 km/h (2 Bft) W-NW 1,00 h 0,533 mm 5,7 UV-I 754 W/m 15,4 C 12,2 km/h (2 Bft)
30.07.2016 16:00 26,4 C 26,4 C 52 % 1011,8 hPa 0,0 mm 7,7 km/h (2 Bft) W 0,22 h 0,533 mm 3,7 UV-I 184 W/m 15,7 C 12,6 km/h (3 Bft)
30.07.2016 17:00 26,2 C 26,2 C 55 % 1011,6 hPa 0,0 mm 7,1 km/h (2 Bft) W-NW 0,00 h 0,178 mm 1,5 UV-I 44 W/m 16,3 C 11,2 km/h (2 Bft)
30.07.2016 18:00 25,0 C 25,0 C 59 % 1011,3 hPa 0,0 mm 5,8 km/h (1 Bft) W 0,00 h 0,076 mm 0,9 UV-I 70 W/m 16,3 C 9,4 km/h (2 Bft)
30.07.2016 19:00 23,4 C 23,4 C 64 % 1011,4 hPa 0,0 mm 3,1 km/h (1 Bft) W-SW 0,30 h 0,077 mm 0,0 UV-I 63 W/m 16,2 C 5,6 km/h (1 Bft)
30.07.2016 20:00 22,3 C 22,4 C 67 % 1011,6 hPa 0,0 mm 4,7 km/h (1 Bft) W-SW 0,15 h 0,050 mm 0,0 UV-I 29 W/m 15,8 C 8,0 km/h (2 Bft)
30.07.2016 21:00 20,4 C 20,4 C 74 % 1011,7 hPa 0,0 mm 1,1 km/h (1 Bft) S 0,00 h 0,051 mm 0,0 UV-I 0 W/m 15,6 C 2,1 km/h (1 Bft)
30.07.2016 22:00 19,2 C 19,3 C 77 % 1011,8 hPa 0,0 mm 1,1 km/h (1 Bft) O 0,00 h 0,000 mm 0,0 UV-I 0 W/m 15,1 C 2,2 km/h (1 Bft)
30.07.2016 23:00 18,0 C 18,1 C 82 % 1011,9 hPa 0,0 mm 0,0 km/h (0 Bft) N 0,00 h 0,026 mm 0,0 UV-I 0 W/m 14,8 C 0,0 km/h (0 Bft)
31.07.2016 00:00 16,8 C 16,9 C 84 % 1011,6 hPa 0,0 mm 0,0 km/h (0 Bft) N 0,00 h 0,000 mm 0,0 UV-I 0 W/m 14,0 C 0,0 km/h (0 Bft)
31.07.2016 01:00 16,0 C 16,0 C 83 % 1011,2 hPa 0,0 mm 0,0 km/h (0 Bft) SW 0,00 h 0,025 mm 0,0 UV-I 0 W/m 13,0 C 0,1 km/h (0 Bft)
31.07.2016 02:00 15,1 C 15,1 C 84 % 1010,9 hPa 0,0 mm 0,5 km/h (0 Bft) SW 0,00 h 0,026 mm 0,0 UV-I 0 W/m 12,5 C 1,3 km/h (1 Bft)
31.07.2016 03:00 14,9 C 14,9 C 86 % 1010,7 hPa 0,0 mm 0,4 km/h (0 Bft) SW 0,00 h 0,025 mm 0,0 UV-I 0 W/m 12,6 C 1,1 km/h (1 Bft)
31.07.2016 04:00 15,4 C 15,4 C 82 % 1010,5 hPa 0,0 mm 1,5 km/h (1 Bft) S-SW 0,00 h 0,000 mm 0,0 UV-I 0 W/m 12,3 C 2,8 km/h (1 Bft)
31.07.2016 05:00 16,8 C 16,8 C 75 % 1010,6 hPa 0,0 mm 2,7 km/h (1 Bft) S 0,00 h 0,026 mm 0,0 UV-I 5 W/m 12,3 C 5,3 km/h (1 Bft)
31.07.2016 06:00 17,7 C 17,8 C 73 % 1010,5 hPa 0,0 mm 1,7 km/h (1 Bft) S-SO 0,00 h 0,025 mm 0,0 UV-I 10 W/m 12,9 C 3,2 km/h (1 Bft)
31.07.2016 07:00 17,5 C 17,5 C 79 % 1010,5 hPa 0,0 mm 1,3 km/h (1 Bft) W-SW 0,00 h 0,025 mm 0,5 UV-I 60 W/m 13,9 C 2,5 km/h (1 Bft)
31.07.2016 08:00 18,4 C 18,4 C 76 % 1010,9 hPa 0,0 mm 2,9 km/h (1 Bft) SW 0,00 h 0,051 mm 0,5 UV-I 55 W/m 14,0 C 5,4 km/h (1 Bft)
31.07.2016 09:00 17,1 C 17,2 C 85 % 1012,1 hPa 0,4 mm 3,7 km/h (1 Bft) W-SW 0,00 h 0,051 mm 0,6 UV-I 56 W/m 14,5 C 7,1 km/h (2 Bft)
31.07.2016 10:00 16,8 C 16,8 C 88 % 1012,2 hPa 0,4 mm 2,1 km/h (1 Bft) S 0,00 h 0,051 mm 0,6 UV-I 68 W/m 14,8 C 4,0 km/h (1 Bft)
31.07.2016 11:00 16,9 C 16,9 C 91 % 1011,7 hPa 0,0 mm 1,2 km/h (1 Bft) NO 0,00 h 0,051 mm 0,9 UV-I 101 W/m 15,3 C 3,0 km/h (1 Bft)
31.07.2016 12:00 18,2 C 18,2 C 87 % 1011,4 hPa 0,0 mm 1,3 km/h (1 Bft) NO 0,00 h 0,050 mm 1,9 UV-I 211 W/m 16,0 C 2,6 km/h (1 Bft)
31.07.2016 13:00 20,8 C 20,9 C 74 % 1011,2 hPa 0,0 mm 3,6 km/h (1 Bft) W 0,65 h 0,127 mm 4,7 UV-I 526 W/m 16,1 C 6,2 km/h (2 Bft)
31.07.2016 14:00 19,8 C 19,9 C 77 % 1011,5 hPa 0,0 mm 9,4 km/h (2 Bft) W 0,00 h 0,331 mm 1,7 UV-I 164 W/m 15,7 C 15,4 km/h (3 Bft)
31.07.2016 15:00 18,1 C 18,1 C 85 % 1012,1 hPa 0,0 mm 4,6 km/h (1 Bft) W-SW 0,00 h 0,127 mm 1,5 UV-I 176 W/m 15,5 C 8,1 km/h (2 Bft)
31.07.2016 16:00 18,8 C 18,8 C 83 % 1011,9 hPa 0,0 mm 1,6 km/h (1 Bft) O-NO 0,00 h 0,101 mm 1,4 UV-I 170 W/m 15,8 C 3,0 km/h (1 Bft)
31.07.2016 17:00 19,6 C 19,6 C 81 % 1011,6 hPa 0,0 mm 1,5 km/h (1 Bft) O 0,03 h 0,102 mm 1,8 UV-I 209 W/m 16,1 C 2,9 km/h (1 Bft)
31.07.2016 18:00 19,0 C 19,1 C 83 % 1011,7 hPa 0,0 mm 3,9 km/h (1 Bft) N 0,00 h 0,127 mm 0,9 UV-I 94 W/m 16,0 C 6,4 km/h (2 Bft)
31.07.2016 19:00 16,1 C 16,2 C 89 % 1013,3 hPa 3,8 mm 7,2 km/h (2 Bft) W-SW 0,00 h 0,051 mm 0,0 UV-I 6 W/m 14,3 C 12,5 km/h (3 Bft)
31.07.2016 20:00 14,6 C 14,6 C 93 % 1014,5 hPa 3,2 mm 3,5 km/h (1 Bft) W-SW 0,00 h 0,025 mm 0,0 UV-I 5 W/m 13,4 C 6,2 km/h (2 Bft)
31.07.2016 21:00 14,4 C 14,4 C 95 % 1014,9 hPa 0,0 mm 0,6 km/h (0 Bft) SW 0,00 h 0,000 mm 0,0 UV-I 0 W/m 13,5 C 1,5 km/h (1 Bft)
31.07.2016 22:00 14,3 C 14,3 C 95 % 1015,3 hPa 0,0 mm 0,6 km/h (0 Bft) S 0,00 h 0,000 mm 0,0 UV-I 0 W/m 13,5 C 1,5 km/h (1 Bft)
31.07.2016 23:00 14,2 C 14,2 C 95 % 1015,7 hPa 1,0 mm 0,3 km/h (0 Bft) SO 0,00 h 0,000 mm 0,0 UV-I 0 W/m 13,4 C 0,6 km/h (0 Bft)
Min-Datum _ 27.07.16 27.07.16 30.07.16 31.07.16 - 31.07.16 - - - - - 27.07.16 31.07.16
_ Min-Zeit 04:35 04:35 15:13 07:05 - 23:00 - - - - - 04:34 23:00
Minimum _ 12,2 C 12,3 C 47 % 1010,0 hPa - 0,0 km/h (0 Bft) - - - - - 11,8 C 0,0 km/h (0 Bft)
Max-Datum _ 30.07.16 30.07.16 27.07.16 25.07.16 26.07.16 26.07.16 - 30.07.16 30.07.16 29.07.16 29.07.16 30.07.16 26.07.16
_ Max-Zeit 14:27 14:27 06:08 22:00 17:01 16:58 - 14:14 16:01 13:00 12:00 11:59 16:58
Maximum _ 27,1 C 27,1 C 97 % 1018,5 hPa 29,8 mm 29,7 km/h
O (5 Bft)
- 0,03 h 0,533 mm 8,5 UV-I 1192 W/m 19,2 C 45,1 km/h
O (6 Bft)
Durchschnitt _ 18,0 C 18,1 C 84 % 1015,3 hPa #84,8 mm 2,4 km/h (1 Bft) W #27:17 h #17,730 mm 2,8 UV-I 165 W/m 15,1 C 4,1 km/h (1 Bft)